Terminal Aerodrome Forecast
Issued by NWS Nashville, TN

Home | Current Version | Previous Version | Text Only | Print | Product List | Glossary On
Versions: 1 2 3 4 5 6 7 8 9 10 11 12 13 14 15 16 17 18 19 20 21 22 23 24 25 26
000
FTUS44 KOHX 291100
TAFCSV
TAF
KCSV 291120Z 2912/3012 11003KT P6SM SKC
     FM292300 19009KT P6SM BKN200
     FM300200 19009KT P6SM BKN030
     FM300600 20009KT 6SM -SHRA BKN015 OVC030
     FM300800 26004KT 5SM -SHRA BR OVC015
     FM301000 20003KT 4SM -SHRA BR OVC007=

USA.gov is the U.S. government's official web portal to all federal, state and local government web resources and services.